Startpagina
METAR-TAF:

METAR-TAF

Vliegvelden :

London Southend Airport

Londen-Southend, Engeland

breedte: 51-34N, lengte: 000-42E, hoogte: 15 m

Actueel weer

Dit bericht is 35 minuten geleden gemaakt, om 18:20 UTC
Wind 12 kt uit het noordoosten
Temperatuur 13°C
Vochtigheid 88%
Druk 1015 hPa
Zicht 10 km of meer
Weinig wolken op 2500 ft

METAR: EGMC 211820Z 04012KT 9999 FEW025 13/11 Q1015

Tijdstip: 19:55 (18:55 UTC)

Verwachting

Dit bericht is 1 uur en het 54 minuten geleden gemaakt, om 17:01 UTC
Verwachting geldig van 21 om 18 UTC tot 22 om 03 UTC
Wind 9 kt uit het noordnoordoosten
Zicht 10 km of meer
Verspreide wolken op 1800 ft
Kans 40% :
Tijdelijke
van 21 om 18 UTC tot 22 om 03 UTC
Zicht: 6000 m
Gebroken wolken op 1400 ft
regen

TAF: EGMC 211701Z 2118/2203 03009KT 9999 SCT018 PROB40 TEMPO 2118/2203 6000 RA BKN014

Waarnemingen en weersverwachtingen van meer dan 4000 vliegvelden (METAR en TAF).

De beschikbare stations zijn de gele en rode punten op de kaart.

Ga met uw muis naar het station om de naam te zien.

Klik dan om waarnemingen en weersverwachtingen te zien.

kaart wijzigen: klik op de groene knoppen met een zwart kruis om in te zoomen, op de groene knop met een streepje om uit te zoomen of op de groene pijlen voor aangrenzende kaarten.


METAR-TAF: